sensor_id;sensor_type;location;lat;lon;timestamp;temperature;humidity
46784;DHT22;32544;52.832;13.816;2022-11-14T00:01:09;23.20;56.30
46784;DHT22;32544;52.832;13.816;2022-11-14T00:02:28;23.20;56.30
46784;DHT22;32544;52.832;13.816;2022-11-14T00:03:50;23.20;56.30
46784;DHT22;32544;52.832;13.816;2022-11-14T00:05:09;23.30;56.30
46784;DHT22;32544;52.832;13.816;2022-11-14T00:06:29;23.20;56.20
46784;DHT22;32544;52.832;13.816;2022-11-14T00:07:48;23.20;56.20
46784;DHT22;32544;52.832;13.816;2022-11-14T00:09:07;23.20;56.20
46784;DHT22;32544;52.832;13.816;2022-11-14T00:10:27;23.20;56.10
46784;DHT22;32544;52.832;13.816;2022-11-14T00:11:46;23.20;56.10
46784;DHT22;32544;52.832;13.816;2022-11-14T00:13:05;23.20;56.20
46784;DHT22;32544;52.832;13.816;2022-11-14T00:14:24;23.20;56.20
46784;DHT22;32544;52.832;13.816;2022-11-14T00:15:43;23.20;56.20
46784;DHT22;32544;52.832;13.816;2022-11-14T00:17:03;23.20;56.10
46784;DHT22;32544;52.832;13.816;2022-11-14T00:18:22;23.20;56.00
46784;DHT22;32544;52.832;13.816;2022-11-14T00:19:42;23.30;56.10
46784;DHT22;32544;52.832;13.816;2022-11-14T00:21:01;23.20;56.00
46784;DHT22;32544;52.832;13.816;2022-11-14T00:22:20;23.20;56.00
46784;DHT22;32544;52.832;13.816;2022-11-14T00:23:40;23.20;56.00
46784;DHT22;32544;52.832;13.816;2022-11-14T00:24:59;23.20;56.50
46784;DHT22;32544;52.832;13.816;2022-11-14T00:26:18;23.20;55.90
46784;DHT22;32544;52.832;13.816;2022-11-14T00:27:38;23.20;55.90
46784;DHT22;32544;52.832;13.816;2022-11-14T00:28:57;23.20;55.90
46784;DHT22;32544;52.832;13.816;2022-11-14T00:30:16;23.20;55.90
46784;DHT22;32544;52.832;13.816;2022-11-14T00:31:35;23.20;55.80
46784;DHT22;32544;52.832;13.816;2022-11-14T00:32:54;23.20;55.80
46784;DHT22;32544;52.832;13.816;2022-11-14T00:34:13;23.20;55.80
46784;DHT22;32544;52.832;13.816;2022-11-14T00:35:33;23.20;56.40
46784;DHT22;32544;52.832;13.816;2022-11-14T00:36:52;23.20;56.40
46784;DHT22;32544;52.832;13.816;2022-11-14T00:38:11;23.20;55.80
46784;DHT22;32544;52.832;13.816;2022-11-14T00:39:30;23.20;55.70
46784;DHT22;32544;52.832;13.816;2022-11-14T00:40:49;23.20;55.70
46784;DHT22;32544;52.832;13.816;2022-11-14T00:42:08;23.20;55.70
46784;DHT22;32544;52.832;13.816;2022-11-14T00:43:28;23.20;55.60
46784;DHT22;32544;52.832;13.816;2022-11-14T00:44:47;23.20;56.30
46784;DHT22;32544;52.832;13.816;2022-11-14T00:46:06;23.20;55.60
46784;DHT22;32544;52.832;13.816;2022-11-14T00:47:25;23.20;55.70
46784;DHT22;32544;52.832;13.816;2022-11-14T00:48:44;23.20;55.70
46784;DHT22;32544;52.832;13.816;2022-11-14T00:50:04;23.20;55.60
46784;DHT22;32544;52.832;13.816;2022-11-14T00:51:23;23.20;55.60
46784;DHT22;32544;52.832;13.816;2022-11-14T00:52:42;23.20;55.60
46784;DHT22;32544;52.832;13.816;2022-11-14T00:54:01;23.20;56.30
46784;DHT22;32544;52.832;13.816;2022-11-14T00:55:21;23.20;55.60
46784;DHT22;32544;52.832;13.816;2022-11-14T00:56:40;23.20;55.70
46784;DHT22;32544;52.832;13.816;2022-11-14T00:57:59;23.20;55.50
46784;DHT22;32544;52.832;13.816;2022-11-14T00:59:18;23.20;55.50
46784;DHT22;32544;52.832;13.816;2022-11-14T01:00:38;23.20;55.40
46784;DHT22;32544;52.832;13.816;2022-11-14T01:01:57;23.20;55.40
46784;DHT22;32544;52.832;13.816;2022-11-14T01:03:16;23.20;55.40
46784;DHT22;32544;52.832;13.816;2022-11-14T01:04:36;23.20;55.40
46784;DHT22;32544;52.832;13.816;2022-11-14T01:05:56;23.20;55.40
46784;DHT22;32544;52.832;13.816;2022-11-14T01:07:15;23.20;55.40
46784;DHT22;32544;52.832;13.816;2022-11-14T01:08:34;23.20;55.40
46784;DHT22;32544;52.832;13.816;2022-11-14T01:09:53;23.20;55.40
46784;DHT22;32544;52.832;13.816;2022-11-14T01:11:14;23.20;55.40
46784;DHT22;32544;52.832;13.816;2022-11-14T01:12:34;23.20;55.40
46784;DHT22;32544;52.832;13.816;2022-11-14T01:13:53;23.20;55.40
46784;DHT22;32544;52.832;13.816;2022-11-14T01:15:12;23.20;55.40
46784;DHT22;32544;52.832;13.816;2022-11-14T01:16:32;23.20;55.30
46784;DHT22;32544;52.832;13.816;2022-11-14T01:17:51;23.20;55.30
46784;DHT22;32544;52.832;13.816;2022-11-14T01:19:10;23.20;55.40
46784;DHT22;32544;52.832;13.816;2022-11-14T01:20:29;23.20;55.40
46784;DHT22;32544;52.832;13.816;2022-11-14T01:21:49;23.20;55.30
46784;DHT22;32544;52.832;13.816;2022-11-14T01:23:08;23.20;55.20
46784;DHT22;32544;52.832;13.816;2022-11-14T01:24:27;23.20;55.30
46784;DHT22;32544;52.832;13.816;2022-11-14T01:25:46;23.20;55.20
46784;DHT22;32544;52.832;13.816;2022-11-14T01:27:05;23.20;55.30
46784;DHT22;32544;52.832;13.816;2022-11-14T01:28:25;23.20;55.20
46784;DHT22;32544;52.832;13.816;2022-11-14T01:29:44;23.20;55.20
46784;DHT22;32544;52.832;13.816;2022-11-14T01:31:10;23.20;55.20
46784;DHT22;32544;52.832;13.816;2022-11-14T01:32:30;23.20;55.20
46784;DHT22;32544;52.832;13.816;2022-11-14T01:33:51;23.20;55.10
46784;DHT22;32544;52.832;13.816;2022-11-14T01:35:10;23.10;55.10
46784;DHT22;32544;52.832;13.816;2022-11-14T01:36:29;23.20;55.70
46784;DHT22;32544;52.832;13.816;2022-11-14T01:37:49;23.20;55.10
46784;DHT22;32544;52.832;13.816;2022-11-14T01:39:08;23.20;55.10
46784;DHT22;32544;52.832;13.816;2022-11-14T01:40:27;23.20;55.10
46784;DHT22;32544;52.832;13.816;2022-11-14T01:41:47;23.10;55.00
46784;DHT22;32544;52.832;13.816;2022-11-14T01:46:04;23.20;54.70
46784;DHT22;32544;52.832;13.816;2022-11-14T01:47:30;23.10;54.60
46784;DHT22;32544;52.832;13.816;2022-11-14T01:50:09;23.10;54.70
46784;DHT22;32544;52.832;13.816;2022-11-14T01:51:33;23.10;54.60
46784;DHT22;32544;52.832;13.816;2022-11-14T01:52:53;23.10;54.60
46784;DHT22;32544;52.832;13.816;2022-11-14T01:54:15;23.10;54.60
46784;DHT22;32544;52.832;13.816;2022-11-14T01:55:35;23.10;54.60
46784;DHT22;32544;52.832;13.816;2022-11-14T01:56:56;23.10;54.70
46784;DHT22;32544;52.832;13.816;2022-11-14T01:58:16;23.10;54.60
46784;DHT22;32544;52.832;13.816;2022-11-14T01:59:37;23.10;54.60
46784;DHT22;32544;52.832;13.816;2022-11-14T02:00:57;23.10;54.50
46784;DHT22;32544;52.832;13.816;2022-11-14T02:02:18;23.10;54.60
46784;DHT22;32544;52.832;13.816;2022-11-14T02:03:38;23.20;54.70
46784;DHT22;32544;52.832;13.816;2022-11-14T02:04:59;23.10;54.70
46784;DHT22;32544;52.832;13.816;2022-11-14T02:06:21;23.10;54.60
46784;DHT22;32544;52.832;13.816;2022-11-14T02:07:41;23.10;54.50
46784;DHT22;32544;52.832;13.816;2022-11-14T02:09:01;23.20;54.60
46784;DHT22;32544;52.832;13.816;2022-11-14T02:10:22;23.20;54.70
46784;DHT22;32544;52.832;13.816;2022-11-14T02:11:42;23.20;54.60
46784;DHT22;32544;52.832;13.816;2022-11-14T02:13:02;23.20;54.60
46784;DHT22;32544;52.832;13.816;2022-11-14T02:14:22;23.20;54.70
46784;DHT22;32544;52.832;13.816;2022-11-14T02:15:41;23.20;54.60
46784;DHT22;32544;52.832;13.816;2022-11-14T02:17:00;23.20;54.60
46784;DHT22;32544;52.832;13.816;2022-11-14T02:18:19;23.20;54.60
46784;DHT22;32544;52.832;13.816;2022-11-14T02:19:43;23.20;54.60
46784;DHT22;32544;52.832;13.816;2022-11-14T02:21:02;23.20;54.60
46784;DHT22;32544;52.832;13.816;2022-11-14T02:22:22;23.20;54.60
46784;DHT22;32544;52.832;13.816;2022-11-14T02:23:41;23.20;54.50
46784;DHT22;32544;52.832;13.816;2022-11-14T02:25:00;23.20;54.60
46784;DHT22;32544;52.832;13.816;2022-11-14T02:26:20;23.20;54.50
46784;DHT22;32544;52.832;13.816;2022-11-14T02:27:39;23.20;54.50
46784;DHT22;32544;52.832;13.816;2022-11-14T02:28:59;23.20;54.50
46784;DHT22;32544;52.832;13.816;2022-11-14T02:30:19;23.20;54.50
46784;DHT22;32544;52.832;13.816;2022-11-14T02:31:39;23.20;54.50
46784;DHT22;32544;52.832;13.816;2022-11-14T02:32:58;23.20;55.10
46784;DHT22;32544;52.832;13.816;2022-11-14T02:34:17;23.20;54.50
46784;DHT22;32544;52.832;13.816;2022-11-14T02:35:38;23.20;54.50
46784;DHT22;32544;52.832;13.816;2022-11-14T02:36:57;23.20;54.50
46784;DHT22;32544;52.832;13.816;2022-11-14T02:38:16;23.20;54.50
46784;DHT22;32544;52.832;13.816;2022-11-14T02:39:36;23.20;54.50
46784;DHT22;32544;52.832;13.816;2022-11-14T02:40:55;23.20;54.50
46784;DHT22;32544;52.832;13.816;2022-11-14T02:42:14;23.20;54.40
46784;DHT22;32544;52.832;13.816;2022-11-14T02:43:34;23.20;54.40
46784;DHT22;32544;52.832;13.816;2022-11-14T02:44:53;23.20;54.50
46784;DHT22;32544;52.832;13.816;2022-11-14T02:46:12;23.20;54.40
46784;DHT22;32544;52.832;13.816;2022-11-14T02:47:31;23.20;54.40
46784;DHT22;32544;52.832;13.816;2022-11-14T02:48:50;23.20;54.40
46784;DHT22;32544;52.832;13.816;2022-11-14T02:50:10;23.20;54.40
46784;DHT22;32544;52.832;13.816;2022-11-14T02:51:29;23.20;54.90
46784;DHT22;32544;52.832;13.816;2022-11-14T02:52:48;23.20;54.30
46784;DHT22;32544;52.832;13.816;2022-11-14T02:54:07;23.20;54.20
46784;DHT22;32544;52.832;13.816;2022-11-14T02:55:27;23.20;54.20
46784;DHT22;32544;52.832;13.816;2022-11-14T02:56:46;23.30;54.20
46784;DHT22;32544;52.832;13.816;2022-11-14T02:58:05;23.30;54.30
46784;DHT22;32544;52.832;13.816;2022-11-14T02:59:25;23.20;54.20
46784;DHT22;32544;52.832;13.816;2022-11-14T03:00:44;23.20;54.20
46784;DHT22;32544;52.832;13.816;2022-11-14T03:02:03;23.20;54.20
46784;DHT22;32544;52.832;13.816;2022-11-14T03:03:23;23.20;54.20
46784;DHT22;32544;52.832;13.816;2022-11-14T03:04:42;23.20;54.20
46784;DHT22;32544;52.832;13.816;2022-11-14T03:06:02;23.20;54.20
46784;DHT22;32544;52.832;13.816;2022-11-14T03:07:21;23.20;54.10
46784;DHT22;32544;52.832;13.816;2022-11-14T03:08:40;23.20;54.80
46784;DHT22;32544;52.832;13.816;2022-11-14T03:09:59;23.30;54.20
46784;DHT22;32544;52.832;13.816;2022-11-14T03:11:18;23.30;54.20
46784;DHT22;32544;52.832;13.816;2022-11-14T03:12:38;23.20;54.10
46784;DHT22;32544;52.832;13.816;2022-11-14T03:13:58;23.20;54.10
46784;DHT22;32544;52.832;13.816;2022-11-14T03:15:17;23.30;54.10
46784;DHT22;32544;52.832;13.816;2022-11-14T03:16:36;23.30;54.10
46784;DHT22;32544;52.832;13.816;2022-11-14T03:17:56;23.30;54.10
46784;DHT22;32544;52.832;13.816;2022-11-14T03:19:15;23.30;54.10
46784;DHT22;32544;52.832;13.816;2022-11-14T03:20:34;23.30;54.10
46784;DHT22;32544;52.832;13.816;2022-11-14T03:21:53;23.20;54.10
46784;DHT22;32544;52.832;13.816;2022-11-14T03:23:12;23.30;54.20
46784;DHT22;32544;52.832;13.816;2022-11-14T03:24:32;23.30;54.10
46784;DHT22;32544;52.832;13.816;2022-11-14T03:25:51;23.20;54.70
46784;DHT22;32544;52.832;13.816;2022-11-14T03:27:10;23.20;54.10
46784;DHT22;32544;52.832;13.816;2022-11-14T03:28:29;23.30;54.20
46784;DHT22;32544;52.832;13.816;2022-11-14T03:29:49;23.20;54.10
46784;DHT22;32544;52.832;13.816;2022-11-14T03:31:09;23.30;54.20
46784;DHT22;32544;52.832;13.816;2022-11-14T03:32:28;23.30;54.20
46784;DHT22;32544;52.832;13.816;2022-11-14T03:33:48;23.30;54.20
46784;DHT22;32544;52.832;13.816;2022-11-14T03:35:07;23.30;54.20
46784;DHT22;32544;52.832;13.816;2022-11-14T03:36:26;23.30;54.10
46784;DHT22;32544;52.832;13.816;2022-11-14T03:37:45;23.30;54.20
46784;DHT22;32544;52.832;13.816;2022-11-14T03:39:05;23.30;54.10
46784;DHT22;32544;52.832;13.816;2022-11-14T03:40:24;23.30;54.10
46784;DHT22;32544;52.832;13.816;2022-11-14T03:41:43;23.30;54.20
46784;DHT22;32544;52.832;13.816;2022-11-14T03:43:03;23.30;54.10
46784;DHT22;32544;52.832;13.816;2022-11-14T03:44:22;23.30;54.20
46784;DHT22;32544;52.832;13.816;2022-11-14T03:45:41;23.30;54.10
46784;DHT22;32544;52.832;13.816;2022-11-14T03:47:00;23.30;54.20
46784;DHT22;32544;52.832;13.816;2022-11-14T03:48:19;23.30;54.10
46784;DHT22;32544;52.832;13.816;2022-11-14T03:49:39;23.30;54.10
46784;DHT22;32544;52.832;13.816;2022-11-14T03:50:58;23.30;54.10
46784;DHT22;32544;52.832;13.816;2022-11-14T03:52:18;23.30;54.10
46784;DHT22;32544;52.832;13.816;2022-11-14T03:53:37;23.40;54.20
46784;DHT22;32544;52.832;13.816;2022-11-14T03:54:56;23.40;54.10
46784;DHT22;32544;52.832;13.816;2022-11-14T03:56:15;23.40;54.10
46784;DHT22;32544;52.832;13.816;2022-11-14T03:57:35;23.40;54.10
46784;DHT22;32544;52.832;13.816;2022-11-14T03:58:54;23.40;54.00
46784;DHT22;32544;52.832;13.816;2022-11-14T04:00:13;23.40;54.60
46784;DHT22;32544;52.832;13.816;2022-11-14T04:01:32;23.40;54.60
46784;DHT22;32544;52.832;13.816;2022-11-14T04:02:52;23.40;54.00
46784;DHT22;32544;52.832;13.816;2022-11-14T04:04:12;23.40;54.00
46784;DHT22;32544;52.832;13.816;2022-11-14T04:05:31;23.40;54.00
46784;DHT22;32544;52.832;13.816;2022-11-14T04:06:50;23.40;53.90
46784;DHT22;32544;52.832;13.816;2022-11-14T04:08:09;23.40;53.90
46784;DHT22;32544;52.832;13.816;2022-11-14T04:09:29;23.40;53.90
46784;DHT22;32544;52.832;13.816;2022-11-14T04:10:48;23.40;53.90
46784;DHT22;32544;52.832;13.816;2022-11-14T04:12:07;23.40;53.90
46784;DHT22;32544;52.832;13.816;2022-11-14T04:13:26;23.40;53.90
46784;DHT22;32544;52.832;13.816;2022-11-14T04:14:45;23.40;53.90
46784;DHT22;32544;52.832;13.816;2022-11-14T04:16:04;23.40;53.80
46784;DHT22;32544;52.832;13.816;2022-11-14T04:17:24;23.40;53.80
46784;DHT22;32544;52.832;13.816;2022-11-14T04:18:43;23.40;53.90
46784;DHT22;32544;52.832;13.816;2022-11-14T04:20:02;23.40;53.80
46784;DHT22;32544;52.832;13.816;2022-11-14T04:21:21;23.40;53.80
46784;DHT22;32544;52.832;13.816;2022-11-14T04:22:40;23.40;53.90
46784;DHT22;32544;52.832;13.816;2022-11-14T04:23:59;23.40;53.90
46784;DHT22;32544;52.832;13.816;2022-11-14T04:25:19;23.40;53.90
46784;DHT22;32544;52.832;13.816;2022-11-14T04:26:38;23.40;53.80
46784;DHT22;32544;52.832;13.816;2022-11-14T04:27:57;23.40;53.80
46784;DHT22;32544;52.832;13.816;2022-11-14T04:29:16;23.40;53.90
46784;DHT22;32544;52.832;13.816;2022-11-14T04:30:35;23.40;53.90
46784;DHT22;32544;52.832;13.816;2022-11-14T04:31:55;23.40;53.90
46784;DHT22;32544;52.832;13.816;2022-11-14T04:33:14;23.40;53.90
46784;DHT22;32544;52.832;13.816;2022-11-14T04:34:33;23.40;53.90
46784;DHT22;32544;52.832;13.816;2022-11-14T04:35:52;23.40;53.90
46784;DHT22;32544;52.832;13.816;2022-11-14T04:37:11;23.40;54.60
46784;DHT22;32544;52.832;13.816;2022-11-14T04:38:30;23.30;53.90
46784;DHT22;32544;52.832;13.816;2022-11-14T04:39:49;23.40;54.00
46784;DHT22;32544;52.832;13.816;2022-11-14T04:41:09;23.30;53.90
46784;DHT22;32544;52.832;13.816;2022-11-14T04:42:28;23.30;53.90
46784;DHT22;32544;52.832;13.816;2022-11-14T04:43:47;23.30;53.90
46784;DHT22;32544;52.832;13.816;2022-11-14T04:45:07;23.30;53.90
46784;DHT22;32544;52.832;13.816;2022-11-14T04:46:26;23.30;53.90
46784;DHT22;32544;52.832;13.816;2022-11-14T04:47:45;23.30;53.90
46784;DHT22;32544;52.832;13.816;2022-11-14T04:49:04;23.30;53.90
46784;DHT22;32544;52.832;13.816;2022-11-14T04:50:23;23.30;53.90
46784;DHT22;32544;52.832;13.816;2022-11-14T04:51:43;23.30;53.90
46784;DHT22;32544;52.832;13.816;2022-11-14T04:53:02;23.30;53.90
46784;DHT22;32544;52.832;13.816;2022-11-14T04:54:21;23.30;53.90
46784;DHT22;32544;52.832;13.816;2022-11-14T04:55:40;23.30;54.50
46784;DHT22;32544;52.832;13.816;2022-11-14T04:56:59;23.30;54.50
46784;DHT22;32544;52.832;13.816;2022-11-14T04:58:18;23.30;53.90
46784;DHT22;32544;52.832;13.816;2022-11-14T04:59:37;23.30;53.90
46784;DHT22;32544;52.832;13.816;2022-11-14T05:00:57;23.30;53.80
46784;DHT22;32544;52.832;13.816;2022-11-14T05:02:16;23.30;53.80
46784;DHT22;32544;52.832;13.816;2022-11-14T05:03:35;23.20;53.80
46784;DHT22;32544;52.832;13.816;2022-11-14T05:04:55;23.20;53.80
46784;DHT22;32544;52.832;13.816;2022-11-14T05:06:14;23.20;54.40
46784;DHT22;32544;52.832;13.816;2022-11-14T05:07:33;23.20;53.70
46784;DHT22;32544;52.832;13.816;2022-11-14T05:08:52;23.20;53.70
46784;DHT22;32544;52.832;13.816;2022-11-14T05:10:12;23.20;53.70
46784;DHT22;32544;52.832;13.816;2022-11-14T05:11:31;23.20;53.70
46784;DHT22;32544;52.832;13.816;2022-11-14T05:12:53;23.20;53.70
46784;DHT22;32544;52.832;13.816;2022-11-14T05:14:12;23.20;53.80
46784;DHT22;32544;52.832;13.816;2022-11-14T05:15:32;23.20;53.80
46784;DHT22;32544;52.832;13.816;2022-11-14T05:16:51;23.20;53.80
46784;DHT22;32544;52.832;13.816;2022-11-14T05:18:10;23.20;53.70
46784;DHT22;32544;52.832;13.816;2022-11-14T05:19:29;23.20;53.70
46784;DHT22;32544;52.832;13.816;2022-11-14T05:20:49;23.20;53.80
46784;DHT22;32544;52.832;13.816;2022-11-14T05:22:08;23.20;53.80
46784;DHT22;32544;52.832;13.816;2022-11-14T05:23:27;23.20;53.80
46784;DHT22;32544;52.832;13.816;2022-11-14T05:24:46;23.20;53.80
46784;DHT22;32544;52.832;13.816;2022-11-14T05:26:08;23.20;53.80
46784;DHT22;32544;52.832;13.816;2022-11-14T05:27:27;23.20;53.80
46784;DHT22;32544;52.832;13.816;2022-11-14T05:28:46;23.20;53.80
46784;DHT22;32544;52.832;13.816;2022-11-14T05:30:06;23.20;53.80
46784;DHT22;32544;52.832;13.816;2022-11-14T05:31:25;23.20;53.80
46784;DHT22;32544;52.832;13.816;2022-11-14T05:32:45;23.20;53.80
46784;DHT22;32544;52.832;13.816;2022-11-14T05:34:04;23.20;53.80
46784;DHT22;32544;52.832;13.816;2022-11-14T05:35:23;23.20;53.80
46784;DHT22;32544;52.832;13.816;2022-11-14T05:36:42;23.20;53.70
46784;DHT22;32544;52.832;13.816;2022-11-14T05:38:01;23.10;53.70
46784;DHT22;32544;52.832;13.816;2022-11-14T05:39:21;23.20;53.70
46784;DHT22;32544;52.832;13.816;2022-11-14T05:40:40;23.10;53.60
46784;DHT22;32544;52.832;13.816;2022-11-14T05:41:59;23.10;53.60
46784;DHT22;32544;52.832;13.816;2022-11-14T05:43:18;23.10;53.60
46784;DHT22;32544;52.832;13.816;2022-11-14T05:44:37;23.20;53.70
46784;DHT22;32544;52.832;13.816;2022-11-14T05:46:00;23.10;53.70
46784;DHT22;32544;52.832;13.816;2022-11-14T05:47:19;23.10;53.70
46784;DHT22;32544;52.832;13.816;2022-11-14T05:48:38;23.10;53.60
46784;DHT22;32544;52.832;13.816;2022-11-14T05:49:58;23.10;53.60
46784;DHT22;32544;52.832;13.816;2022-11-14T05:51:17;23.10;53.60
46784;DHT22;32544;52.832;13.816;2022-11-14T05:52:37;23.10;53.60
46784;DHT22;32544;52.832;13.816;2022-11-14T05:53:56;23.10;53.60
46784;DHT22;32544;52.832;13.816;2022-11-14T05:55:15;23.10;53.60
46784;DHT22;32544;52.832;13.816;2022-11-14T05:56:34;23.10;53.60
46784;DHT22;32544;52.832;13.816;2022-11-14T05:57:56;23.10;53.50
46784;DHT22;32544;52.832;13.816;2022-11-14T05:59:15;23.10;53.60
46784;DHT22;32544;52.832;13.816;2022-11-14T06:00:35;23.10;53.50
46784;DHT22;32544;52.832;13.816;2022-11-14T06:01:54;23.10;53.50
46784;DHT22;32544;52.832;13.816;2022-11-14T06:03:13;23.20;53.50
46784;DHT22;32544;52.832;13.816;2022-11-14T06:04:33;23.20;53.50
46784;DHT22;32544;52.832;13.816;2022-11-14T06:05:52;23.20;53.50
46784;DHT22;32544;52.832;13.816;2022-11-14T06:07:11;23.10;53.50
46784;DHT22;32544;52.832;13.816;2022-11-14T06:08:30;23.20;53.50
46784;DHT22;32544;52.832;13.816;2022-11-14T06:09:50;23.20;53.50
46784;DHT22;32544;52.832;13.816;2022-11-14T06:11:10;23.20;53.40
46784;DHT22;32544;52.832;13.816;2022-11-14T06:12:30;23.20;53.50
46784;DHT22;32544;52.832;13.816;2022-11-14T06:13:49;23.20;53.50
46784;DHT22;32544;52.832;13.816;2022-11-14T06:15:08;23.20;53.50
46784;DHT22;32544;52.832;13.816;2022-11-14T06:16:28;23.20;53.50
46784;DHT22;32544;52.832;13.816;2022-11-14T06:17:47;23.20;53.40
46784;DHT22;32544;52.832;13.816;2022-11-14T06:19:06;23.20;53.40
46784;DHT22;32544;52.832;13.816;2022-11-14T06:20:25;23.20;53.40
46784;DHT22;32544;52.832;13.816;2022-11-14T06:21:45;23.20;53.40
46784;DHT22;32544;52.832;13.816;2022-11-14T06:23:04;23.20;53.40
46784;DHT22;32544;52.832;13.816;2022-11-14T06:24:23;23.20;53.40
46784;DHT22;32544;52.832;13.816;2022-11-14T06:25:42;23.20;53.40
46784;DHT22;32544;52.832;13.816;2022-11-14T06:27:02;23.20;53.40
46784;DHT22;32544;52.832;13.816;2022-11-14T06:28:21;23.20;53.30
46784;DHT22;32544;52.832;13.816;2022-11-14T06:29:40;23.20;53.30
46784;DHT22;32544;52.832;13.816;2022-11-14T06:31:00;23.20;53.30
46784;DHT22;32544;52.832;13.816;2022-11-14T06:32:19;23.20;54.00
46784;DHT22;32544;52.832;13.816;2022-11-14T06:33:38;23.20;53.30
46784;DHT22;32544;52.832;13.816;2022-11-14T06:34:57;23.20;53.30
46784;DHT22;32544;52.832;13.816;2022-11-14T06:36:17;23.20;53.30
46784;DHT22;32544;52.832;13.816;2022-11-14T06:37:36;23.20;53.30
46784;DHT22;32544;52.832;13.816;2022-11-14T06:38:55;23.20;53.30
46784;DHT22;32544;52.832;13.816;2022-11-14T06:40:14;23.30;53.30
46784;DHT22;32544;52.832;13.816;2022-11-14T06:41:34;23.20;53.30
46784;DHT22;32544;52.832;13.816;2022-11-14T06:42:56;23.20;53.20
46784;DHT22;32544;52.832;13.816;2022-11-14T06:44:15;23.30;53.30
46784;DHT22;32544;52.832;13.816;2022-11-14T06:45:35;23.20;53.30
46784;DHT22;32544;52.832;13.816;2022-11-14T06:46:54;23.20;53.30
46784;DHT22;32544;52.832;13.816;2022-11-14T06:48:14;23.20;53.30
46784;DHT22;32544;52.832;13.816;2022-11-14T06:49:33;23.20;53.30
46784;DHT22;32544;52.832;13.816;2022-11-14T06:50:53;23.30;53.30
46784;DHT22;32544;52.832;13.816;2022-11-14T06:52:12;23.20;53.30
46784;DHT22;32544;52.832;13.816;2022-11-14T06:53:32;23.20;53.30
46784;DHT22;32544;52.832;13.816;2022-11-14T06:54:52;23.30;53.30
46784;DHT22;32544;52.832;13.816;2022-11-14T06:56:13;23.30;53.30
46784;DHT22;32544;52.832;13.816;2022-11-14T06:57:32;23.30;53.30
46784;DHT22;32544;52.832;13.816;2022-11-14T06:58:51;23.20;53.30
46784;DHT22;32544;52.832;13.816;2022-11-14T07:00:10;23.20;53.90
46784;DHT22;32544;52.832;13.816;2022-11-14T07:01:29;23.20;53.30
46784;DHT22;32544;52.832;13.816;2022-11-14T07:02:49;23.20;53.30
46784;DHT22;32544;52.832;13.816;2022-11-14T07:04:08;23.20;53.40
46784;DHT22;32544;52.832;13.816;2022-11-14T07:05:27;23.30;53.40
46784;DHT22;32544;52.832;13.816;2022-11-14T07:06:46;23.20;53.40
46784;DHT22;32544;52.832;13.816;2022-11-14T07:08:05;23.20;53.40
46784;DHT22;32544;52.832;13.816;2022-11-14T07:09:25;23.20;53.40
46784;DHT22;32544;52.832;13.816;2022-11-14T07:10:44;23.20;53.40
46784;DHT22;32544;52.832;13.816;2022-11-14T07:12:03;23.20;53.40
46784;DHT22;32544;52.832;13.816;2022-11-14T07:13:22;23.30;53.40
46784;DHT22;32544;52.832;13.816;2022-11-14T07:14:42;23.20;53.40
46784;DHT22;32544;52.832;13.816;2022-11-14T07:16:01;23.20;53.40
46784;DHT22;32544;52.832;13.816;2022-11-14T07:17:20;23.20;53.40
46784;DHT22;32544;52.832;13.816;2022-11-14T07:18:40;23.20;54.00
46784;DHT22;32544;52.832;13.816;2022-11-14T07:19:59;23.20;53.40
46784;DHT22;32544;52.832;13.816;2022-11-14T07:21:18;23.20;53.40
46784;DHT22;32544;52.832;13.816;2022-11-14T07:22:38;23.20;53.40
46784;DHT22;32544;52.832;13.816;2022-11-14T07:23:57;23.20;53.40
46784;DHT22;32544;52.832;13.816;2022-11-14T07:25:16;23.20;53.40
46784;DHT22;32544;52.832;13.816;2022-11-14T07:26:35;23.20;53.40
46784;DHT22;32544;52.832;13.816;2022-11-14T07:27:56;23.20;53.50
46784;DHT22;32544;52.832;13.816;2022-11-14T07:29:15;23.20;53.40
46784;DHT22;32544;52.832;13.816;2022-11-14T07:30:34;23.20;53.50
46784;DHT22;32544;52.832;13.816;2022-11-14T07:31:53;23.20;53.40
46784;DHT22;32544;52.832;13.816;2022-11-14T07:33:12;23.20;53.40
46784;DHT22;32544;52.832;13.816;2022-11-14T07:34:32;23.20;54.10
46784;DHT22;32544;52.832;13.816;2022-11-14T07:35:51;23.20;54.10
46784;DHT22;32544;52.832;13.816;2022-11-14T07:37:10;23.20;53.50
46784;DHT22;32544;52.832;13.816;2022-11-14T07:38:30;23.20;53.50
46784;DHT22;32544;52.832;13.816;2022-11-14T07:39:49;23.20;53.50
46784;DHT22;32544;52.832;13.816;2022-11-14T07:41:13;23.20;53.50
46784;DHT22;32544;52.832;13.816;2022-11-14T07:42:32;23.20;53.50
46784;DHT22;32544;52.832;13.816;2022-11-14T07:43:51;23.20;53.60
46784;DHT22;32544;52.832;13.816;2022-11-14T07:45:11;23.20;53.60
46784;DHT22;32544;52.832;13.816;2022-11-14T07:46:30;23.20;54.20
46784;DHT22;32544;52.832;13.816;2022-11-14T07:47:52;23.20;54.20
46784;DHT22;32544;52.832;13.816;2022-11-14T07:49:12;23.20;53.50
46784;DHT22;32544;52.832;13.816;2022-11-14T07:50:31;23.20;53.60
46784;DHT22;32544;52.832;13.816;2022-11-14T07:51:50;23.20;53.70
46784;DHT22;32544;52.832;13.816;2022-11-14T07:53:10;23.20;53.60
46784;DHT22;32544;52.832;13.816;2022-11-14T07:54:29;23.20;53.70
46784;DHT22;32544;52.832;13.816;2022-11-14T07:55:48;23.20;53.70
46784;DHT22;32544;52.832;13.816;2022-11-14T07:57:07;23.20;53.70
46784;DHT22;32544;52.832;13.816;2022-11-14T07:58:27;23.20;53.70
46784;DHT22;32544;52.832;13.816;2022-11-14T07:59:46;23.20;53.80
46784;DHT22;32544;52.832;13.816;2022-11-14T08:01:05;23.20;54.40
46784;DHT22;32544;52.832;13.816;2022-11-14T08:02:25;23.20;53.80
46784;DHT22;32544;52.832;13.816;2022-11-14T08:03:44;23.20;54.50
46784;DHT22;32544;52.832;13.816;2022-11-14T08:05:03;23.20;53.80
46784;DHT22;32544;52.832;13.816;2022-11-14T08:06:22;23.20;53.80
46784;DHT22;32544;52.832;13.816;2022-11-14T08:07:42;23.20;53.90
46784;DHT22;32544;52.832;13.816;2022-11-14T08:09:01;23.20;53.90
46784;DHT22;32544;52.832;13.816;2022-11-14T08:10:20;23.20;53.80
46784;DHT22;32544;52.832;13.816;2022-11-14T08:11:39;23.20;53.90
46784;DHT22;32544;52.832;13.816;2022-11-14T08:13:09;23.20;53.90
46784;DHT22;32544;52.832;13.816;2022-11-14T08:14:28;23.20;54.00
46784;DHT22;32544;52.832;13.816;2022-11-14T08:15:47;23.10;53.90
46784;DHT22;32544;52.832;13.816;2022-11-14T08:17:07;23.20;53.90
46784;DHT22;32544;52.832;13.816;2022-11-14T08:18:26;23.10;53.90